createdAt,value
2022-11-24T00:01:26.258Z,96.82
2022-11-24T00:04:00.858Z,96.54
2022-11-24T00:06:28.354Z,96.71
2022-11-24T00:08:55.086Z,96.61
2022-11-24T00:11:24.041Z,96.01
2022-11-24T00:13:50.971Z,96.11
2022-11-24T00:16:20.530Z,96.25
2022-11-24T00:18:49.263Z,95.85
2022-11-24T00:21:17.098Z,95.63
2022-11-24T00:23:44.324Z,95.39
2022-11-24T00:26:13.492Z,95.60
2022-11-24T00:28:41.071Z,95.81
2022-11-24T00:31:18.137Z,96.07
2022-11-24T00:33:46.385Z,95.96
2022-11-24T00:36:13.105Z,95.92
2022-11-24T00:38:39.789Z,95.92
2022-11-24T00:41:06.762Z,96.34
2022-11-24T00:43:33.394Z,96.87
2022-11-24T00:45:59.979Z,96.97
2022-11-24T00:48:26.542Z,97.08
2022-11-24T00:51:01.563Z,97.20
2022-11-24T00:53:28.884Z,97.18
2022-11-24T00:55:55.624Z,97.05
2022-11-24T00:58:23.781Z,96.55
2022-11-24T01:00:51.258Z,96.38
2022-11-24T01:03:19.839Z,96.13
2022-11-24T01:05:46.292Z,96.55
2022-11-24T01:08:12.719Z,96.48
2022-11-24T01:10:39.261Z,96.60
2022-11-24T01:13:06.014Z,96.64
2022-11-24T01:15:35.585Z,96.51
2022-11-24T01:18:02.262Z,96.31
2022-11-24T01:20:28.609Z,96.46
2022-11-24T01:22:54.965Z,96.38
2022-11-24T01:25:21.374Z,96.54
2022-11-24T01:27:47.730Z,96.43
2022-11-24T01:30:14.263Z,95.83
2022-11-24T01:32:40.630Z,95.60
2022-11-24T01:35:07.791Z,95.37
2022-11-24T01:37:34.256Z,95.79
2022-11-24T01:40:00.648Z,96.03
2022-11-24T01:42:37.210Z,96.43
2022-11-24T01:45:42.268Z,96.63
2022-11-24T01:48:38.701Z,96.86
2022-11-24T01:51:12.694Z,96.88
2022-11-24T01:53:43.975Z,96.88
2022-11-24T01:56:12.256Z,96.96
2022-11-24T01:58:41.006Z,96.63
2022-11-24T02:01:08.610Z,96.65
2022-11-24T02:03:39.029Z,96.72
2022-11-24T02:06:21.972Z,96.60
2022-11-24T02:09:00.579Z,96.91
2022-11-24T02:11:33.561Z,96.79
2022-11-24T02:14:00.475Z,96.41
2022-11-24T02:16:27.293Z,96.06
2022-11-24T02:18:53.841Z,95.88
2022-11-24T02:21:20.358Z,96.26
2022-11-24T02:23:46.638Z,96.32
2022-11-24T02:26:44.086Z,96.51
2022-11-24T02:29:12.812Z,96.62
2022-11-24T02:31:44.393Z,96.84
2022-11-24T02:34:10.736Z,96.39
2022-11-24T02:36:37.194Z,96.78
2022-11-24T02:39:05.467Z,96.15
2022-11-24T02:41:31.994Z,95.11
2022-11-24T02:44:02.069Z,95.20
2022-11-24T02:46:28.464Z,95.18
2022-11-24T02:48:55.012Z,95.16
2022-11-24T02:51:21.505Z,95.01
2022-11-24T02:53:47.882Z,95.71
2022-11-24T02:56:14.300Z,95.80
2022-11-24T02:58:40.822Z,95.51
2022-11-24T03:01:07.293Z,96.11
2022-11-24T03:03:33.774Z,96.47
2022-11-24T03:06:00.210Z,96.56
2022-11-24T03:08:26.597Z,97.03
2022-11-24T03:10:52.934Z,97.15
2022-11-24T03:13:19.338Z,96.98
2022-11-24T03:15:45.792Z,96.84
2022-11-24T03:18:12.235Z,96.23
2022-11-24T03:20:38.569Z,96.53
2022-11-24T03:23:05.076Z,96.16
2022-11-24T03:25:31.522Z,96.22
2022-11-24T03:28:00.392Z,95.99
2022-11-24T03:30:26.880Z,95.99
2022-11-24T03:32:53.982Z,96.10
2022-11-24T03:35:21.474Z,96.29
2022-11-24T03:37:47.842Z,96.84
2022-11-24T03:40:14.830Z,97.35
2022-11-24T03:42:41.238Z,97.47
2022-11-24T03:45:44.812Z,97.47
2022-11-24T03:47:54.377Z,97.85
2022-11-24T03:50:20.762Z,98.11
2022-11-24T03:52:47.097Z,97.84
2022-11-24T03:55:13.550Z,98.06
2022-11-24T03:57:39.883Z,97.82
2022-11-24T04:00:06.864Z,97.77
2022-11-24T04:02:33.446Z,97.56
2022-11-24T04:04:59.796Z,97.27
2022-11-24T04:07:26.195Z,97.45
2022-11-24T04:09:52.634Z,97.21
2022-11-24T04:12:37.666Z,97.34
2022-11-24T04:15:04.363Z,97.58
2022-11-24T04:17:30.660Z,97.57
2022-11-24T04:19:56.994Z,97.42
2022-11-24T04:22:23.275Z,97.66
2022-11-24T04:24:49.586Z,97.70
2022-11-24T04:27:15.957Z,97.63
2022-11-24T04:29:42.381Z,97.71
2022-11-24T04:32:08.889Z,97.51
2022-11-24T04:34:36.133Z,97.60
2022-11-24T04:37:02.726Z,97.60
2022-11-24T04:39:29.165Z,97.55
2022-11-24T04:41:55.816Z,97.60
2022-11-24T04:44:22.202Z,97.43
2022-11-24T04:46:48.539Z,97.89
2022-11-24T04:49:15.017Z,97.67
2022-11-24T04:51:41.934Z,97.70
2022-11-24T04:54:11.279Z,97.82
2022-11-24T04:56:37.639Z,97.68
2022-11-24T04:59:08.174Z,97.83
2022-11-24T05:01:35.063Z,97.77
2022-11-24T05:04:01.537Z,97.80
2022-11-24T05:06:27.901Z,97.26
2022-11-24T05:08:54.221Z,97.50
2022-11-24T05:11:20.562Z,97.52
2022-11-24T05:13:46.892Z,97.22
2022-11-24T05:16:13.217Z,97.16
2022-11-24T05:18:39.599Z,97.54
2022-11-24T05:21:09.113Z,97.43
2022-11-24T05:23:35.709Z,97.05
2022-11-24T05:26:02.292Z,97.08
2022-11-24T05:28:29.145Z,97.02
2022-11-24T05:30:59.458Z,96.81
2022-11-24T05:33:28.421Z,96.65
2022-11-24T05:35:54.934Z,96.97
2022-11-24T05:38:22.558Z,96.89
2022-11-24T05:40:48.973Z,97.03
2022-11-24T05:43:16.605Z,97.10
2022-11-24T05:45:44.148Z,97.16
2022-11-24T05:48:13.401Z,97.20
2022-11-24T05:50:40.309Z,97.04
2022-11-24T05:53:09.548Z,97.08
2022-11-24T05:55:36.429Z,97.18
2022-11-24T05:58:05.160Z,97.21
2022-11-24T06:00:33.294Z,97.17
2022-11-24T06:03:00.274Z,96.45
2022-11-24T06:05:28.218Z,96.48
2022-11-24T06:07:55.176Z,96.93
2022-11-24T06:10:23.893Z,97.14
2022-11-24T06:12:50.737Z,96.98
2022-11-24T06:15:17.344Z,97.16
2022-11-24T06:17:43.939Z,96.78
2022-11-24T06:20:11.119Z,96.72
2022-11-24T06:22:38.089Z,97.01
2022-11-24T06:25:04.756Z,96.28
2022-11-24T06:27:31.118Z,96.79
2022-11-24T06:29:57.725Z,96.63
2022-11-24T06:32:24.177Z,96.42
2022-11-24T06:34:50.506Z,96.90
2022-11-24T06:37:16.971Z,96.69
2022-11-24T06:39:43.298Z,96.03
2022-11-24T06:42:09.646Z,95.73
2022-11-24T06:44:36.211Z,96.31
2022-11-24T06:47:02.761Z,96.27
2022-11-24T06:49:29.248Z,96.61
2022-11-24T06:51:55.790Z,96.14
2022-11-24T06:54:22.182Z,95.01
2022-11-24T06:56:48.579Z,95.80
2022-11-24T06:59:20.421Z,94.16
2022-11-24T07:01:46.992Z,94.40
2022-11-24T07:04:13.975Z,95.53
2022-11-24T07:06:41.258Z,95.57
2022-11-24T07:09:12.132Z,95.59
2022-11-24T07:11:39.550Z,94.08
2022-11-24T07:14:06.150Z,94.88
2022-11-24T07:16:33.257Z,94.90
2022-11-24T07:19:00.109Z,95.09
2022-11-24T07:21:27.716Z,95.26
2022-11-24T07:23:56.103Z,95.81
2022-11-24T07:26:23.661Z,95.75
2022-11-24T07:28:50.715Z,95.01
2022-11-24T07:31:20.690Z,94.96
2022-11-24T07:33:54.940Z,94.83
2022-11-24T07:36:22.555Z,94.78
2022-11-24T07:38:49.217Z,95.10
2022-11-24T07:41:17.848Z,94.95
2022-11-24T07:43:44.182Z,95.11
2022-11-24T07:46:14.014Z,95.47
2022-11-24T07:48:40.765Z,95.82
2022-11-24T07:51:08.240Z,95.13
2022-11-24T07:53:35.553Z,95.28
2022-11-24T07:56:04.852Z,93.94
2022-11-24T07:58:33.478Z,94.58
2022-11-24T08:01:00.621Z,94.57
2022-11-24T08:03:27.569Z,94.85
2022-11-24T08:08:45.232Z,95.16
2022-11-24T08:11:16.963Z,95.29
2022-11-24T08:13:44.210Z,95.44
2022-11-24T08:16:13.413Z,95.18
2022-11-24T08:18:39.859Z,95.28
2022-11-24T08:21:07.050Z,95.26
2022-11-24T08:23:34.096Z,95.17
2022-11-24T08:26:09.106Z,95.09
2022-11-24T08:28:36.009Z,95.14
2022-11-24T08:31:04.968Z,94.60
2022-11-24T08:33:31.544Z,94.93
2022-11-24T08:36:03.668Z,94.37
2022-11-24T08:38:30.008Z,94.51
2022-11-24T08:41:00.889Z,93.01
2022-11-24T08:43:27.234Z,92.22
2022-11-24T08:45:53.702Z,91.10
2022-11-24T08:48:20.053Z,89.81
2022-11-24T08:50:46.397Z,89.97
2022-11-24T08:53:12.798Z,89.21
2022-11-24T08:55:39.086Z,88.59
2022-11-24T08:58:05.360Z,88.57
2022-11-24T09:00:31.767Z,85.18
2022-11-24T09:02:58.866Z,85.42
2022-11-24T09:05:50.619Z,85.04
2022-11-24T09:08:12.041Z,84.82
2022-11-24T09:10:38.446Z,83.79
2022-11-24T09:13:04.795Z,83.73
2022-11-24T09:15:31.088Z,83.23
2022-11-24T09:17:57.614Z,83.58
2022-11-24T09:20:24.109Z,83.37
2022-11-24T09:22:50.491Z,83.28
2022-11-24T09:25:17.172Z,83.19
2022-11-24T09:27:43.466Z,82.46
2022-11-24T09:30:10.458Z,82.60
2022-11-24T09:32:37.577Z,80.67
2022-11-24T09:35:04.351Z,79.59
2022-11-24T09:37:32.929Z,79.71
2022-11-24T09:39:59.453Z,80.23
2022-11-24T09:42:53.936Z,80.91
2022-11-24T09:46:04.065Z,81.04
2022-11-24T09:48:30.848Z,81.09
2022-11-24T09:51:00.897Z,80.74
2022-11-24T09:53:56.932Z,80.57
2022-11-24T09:56:29.897Z,80.07
2022-11-24T09:59:05.219Z,79.79
2022-11-24T10:01:41.677Z,80.07
2022-11-24T10:04:19.454Z,80.30
2022-11-24T10:07:09.524Z,80.09
2022-11-24T10:10:06.207Z,80.17
2022-11-24T10:12:57.141Z,79.61
2022-11-24T10:15:34.780Z,78.57
2022-11-24T10:18:16.400Z,76.06
2022-11-24T10:21:25.725Z,75.49
2022-11-24T10:24:23.128Z,74.73
2022-11-24T10:27:02.007Z,69.14
2022-11-24T10:29:40.338Z,67.21
2022-11-24T10:32:31.817Z,69.05
2022-11-24T10:35:14.862Z,70.11
2022-11-24T10:37:51.069Z,69.95
2022-11-24T10:40:56.953Z,68.26
2022-11-24T10:43:26.732Z,66.95
2022-11-24T10:45:53.300Z,66.53
2022-11-24T10:48:26.059Z,65.67
2022-11-24T10:51:08.160Z,65.16
2022-11-24T10:53:35.862Z,66.25
2022-11-24T10:56:05.069Z,65.65
2022-11-24T10:58:38.415Z,64.79
2022-11-24T11:01:14.320Z,65.33
2022-11-24T11:03:57.988Z,66.31
2022-11-24T11:06:27.014Z,66.00
2022-11-24T11:09:18.958Z,66.70
2022-11-24T11:11:48.241Z,66.54
2022-11-24T11:14:31.161Z,67.00
2022-11-24T11:16:57.935Z,65.36
2022-11-24T11:19:50.363Z,65.13
2022-11-24T11:22:26.588Z,65.79
2022-11-24T11:25:09.310Z,65.20
2022-11-24T11:27:36.549Z,64.59
2022-11-24T11:36:10.668Z,65.00
2022-11-24T11:38:39.555Z,62.10
2022-11-24T11:41:13.860Z,62.93
2022-11-24T11:43:41.262Z,62.36
2022-11-24T11:46:18.277Z,60.41
2022-11-24T11:48:46.741Z,59.11
2022-11-24T11:51:31.688Z,58.17
2022-11-24T11:54:12.978Z,56.98
2022-11-24T11:56:45.899Z,57.54
2022-11-24T11:59:41.730Z,58.28
2022-11-24T12:02:26.011Z,59.32
2022-11-24T12:05:20.408Z,59.63
2022-11-24T12:08:21.543Z,60.15
2022-11-24T12:10:59.805Z,59.55
2022-11-24T12:13:44.536Z,57.48
2022-11-24T12:16:35.009Z,57.63
2022-11-24T12:19:16.609Z,57.39
2022-11-24T12:21:50.226Z,56.80
2022-11-24T12:24:55.145Z,56.03
2022-11-24T12:27:33.183Z,55.61
2022-11-24T12:30:12.414Z,55.04
2022-11-24T12:32:44.953Z,55.29
2022-11-24T12:35:14.434Z,56.57
2022-11-24T12:37:58.417Z,56.29
2022-11-24T12:41:33.715Z,55.77
2022-11-24T12:43:55.235Z,56.97
2022-11-24T12:46:30.352Z,56.98
2022-11-24T12:49:06.107Z,57.05
2022-11-24T12:51:37.323Z,57.40
2022-11-24T12:54:10.319Z,57.23
2022-11-24T12:56:49.326Z,58.00
2022-11-24T12:59:39.340Z,58.46
2022-11-24T13:02:20.815Z,58.95
2022-11-24T13:04:51.821Z,58.35
2022-11-24T13:07:37.862Z,57.56
2022-11-24T13:10:46.476Z,57.26
2022-11-24T13:13:13.300Z,56.27
2022-11-24T13:16:34.561Z,56.81
2022-11-24T13:18:55.627Z,56.58
2022-11-24T13:21:29.250Z,56.92
2022-11-24T13:24:02.322Z,56.95
2022-11-24T13:26:32.420Z,56.56
2022-11-24T13:29:13.357Z,56.84
2022-11-24T13:31:50.589Z,57.75
2022-11-24T13:34:38.930Z,57.50
2022-11-24T13:37:40.539Z,58.61
2022-11-24T13:40:29.661Z,58.73
2022-11-24T13:42:56.104Z,59.02
2022-11-24T13:45:45.041Z,59.86
2022-11-24T13:48:21.434Z,57.33
2022-11-24T13:50:51.760Z,58.23
2022-11-24T13:53:31.878Z,58.08
2022-11-24T13:56:00.530Z,57.12
2022-11-24T13:58:51.033Z,56.81
2022-11-24T14:01:20.286Z,57.43
2022-11-24T14:04:34.006Z,57.80
2022-11-24T14:07:09.035Z,57.82
2022-11-24T14:09:48.153Z,58.78
2022-11-24T14:12:25.353Z,59.14
2022-11-24T14:14:56.574Z,59.42
2022-11-24T14:17:26.655Z,60.58
2022-11-24T14:19:57.502Z,60.30
2022-11-24T14:22:43.161Z,60.44
2022-11-24T14:25:24.861Z,60.14
2022-11-24T14:27:51.236Z,60.91
2022-11-24T14:30:21.814Z,61.67
2022-11-24T14:32:58.189Z,61.76
2022-11-24T14:35:33.123Z,61.94
2022-11-24T14:38:02.305Z,62.05
2022-11-24T14:40:37.901Z,62.19
2022-11-24T14:43:20.806Z,62.65
2022-11-24T14:45:56.565Z,63.26
2022-11-24T14:48:28.618Z,63.80
2022-11-24T14:51:06.249Z,64.85
2022-11-24T14:53:34.010Z,65.59
2022-11-24T14:56:09.249Z,66.24
2022-11-24T14:58:41.773Z,67.04
2022-11-24T15:01:11.291Z,67.22
2022-11-24T15:03:37.782Z,67.94
2022-11-24T15:06:04.299Z,68.65
2022-11-24T15:08:46.674Z,68.98
2022-11-24T15:11:13.788Z,69.58
2022-11-24T15:13:51.080Z,70.34
2022-11-24T15:16:20.466Z,70.56
2022-11-24T15:18:48.361Z,71.65
2022-11-24T15:21:19.197Z,71.80
2022-11-24T15:24:06.044Z,72.24
2022-11-24T15:26:38.242Z,73.02
2022-11-24T15:29:07.949Z,73.84
2022-11-24T15:31:34.336Z,74.40
2022-11-24T15:34:00.684Z,74.81
2022-11-24T15:36:27.015Z,75.10
2022-11-24T15:38:53.340Z,75.73
2022-11-24T15:41:22.142Z,76.36
2022-11-24T15:43:48.670Z,76.76
2022-11-24T15:46:15.819Z,77.41
2022-11-24T15:48:42.204Z,77.61
2022-11-24T15:51:14.891Z,77.59
2022-11-24T15:53:46.475Z,78.11
2022-11-24T15:56:20.630Z,78.67
2022-11-24T15:58:46.909Z,79.05
2022-11-24T16:01:13.338Z,80.18
2022-11-24T16:03:47.072Z,80.71
2022-11-24T16:06:24.211Z,80.98
2022-11-24T16:08:52.127Z,81.67
2022-11-24T16:11:18.462Z,82.52
2022-11-24T16:13:51.490Z,82.74
2022-11-24T16:16:19.203Z,82.82
2022-11-24T16:18:45.822Z,83.36
2022-11-24T16:21:12.256Z,83.91
2022-11-24T16:23:38.912Z,84.45
2022-11-24T16:26:05.959Z,84.81
2022-11-24T16:28:32.967Z,85.19
2022-11-24T16:30:59.340Z,85.28
2022-11-24T16:33:25.720Z,85.63
2022-11-24T16:35:52.128Z,86.06
2022-11-24T16:38:19.874Z,86.47
2022-11-24T16:40:58.456Z,86.93
2022-11-24T16:43:24.890Z,87.28
2022-11-24T16:46:17.863Z,87.17
2022-11-24T16:48:45.733Z,87.14
2022-11-24T16:51:13.394Z,87.64
2022-11-24T16:53:40.655Z,87.67
2022-11-24T16:56:07.189Z,88.02
2022-11-24T16:58:36.353Z,88.71
2022-11-24T17:01:04.557Z,88.66
2022-11-24T17:03:33.347Z,88.67
2022-11-24T17:06:01.002Z,88.94
2022-11-24T17:08:30.759Z,89.01
2022-11-24T17:10:57.171Z,89.34
2022-11-24T17:13:24.137Z,89.21
2022-11-24T17:15:54.150Z,89.55
2022-11-24T17:18:25.201Z,89.93
2022-11-24T17:20:52.023Z,89.74
2022-11-24T17:23:19.430Z,89.66
2022-11-24T17:25:45.902Z,89.73
2022-11-24T17:28:12.253Z,89.96
2022-11-24T17:30:38.598Z,90.21
2022-11-24T17:33:05.706Z,90.57
2022-11-24T17:35:34.586Z,90.65
2022-11-24T17:38:01.260Z,90.57
2022-11-24T17:40:29.305Z,90.87
2022-11-24T17:43:00.464Z,90.95
2022-11-24T17:45:28.213Z,91.14
2022-11-24T17:47:56.042Z,91.37
2022-11-24T17:50:25.646Z,91.31
2022-11-24T17:52:53.558Z,91.70
2022-11-24T17:55:19.959Z,92.02
2022-11-24T17:57:46.315Z,92.02
2022-11-24T18:00:13.388Z,92.62
2022-11-24T18:02:39.794Z,92.67
2022-11-24T18:05:06.753Z,92.33
2022-11-24T18:07:36.280Z,92.68
2022-11-24T18:10:03.209Z,93.01
2022-11-24T18:12:29.545Z,93.44
2022-11-24T18:14:55.875Z,92.46
2022-11-24T18:17:22.270Z,92.02
2022-11-24T18:19:48.574Z,89.99
2022-11-24T18:22:14.953Z,88.86
2022-11-24T18:24:41.320Z,88.87
2022-11-24T18:27:07.664Z,88.85
2022-11-24T18:29:33.985Z,88.42
2022-11-24T18:32:00.375Z,88.25
2022-11-24T18:34:26.722Z,88.00
2022-11-24T18:36:53.173Z,88.30
2022-11-24T18:39:19.602Z,88.77
2022-11-24T18:41:46.582Z,88.70
2022-11-24T18:44:12.999Z,89.00
2022-11-24T18:46:39.578Z,89.71
2022-11-24T18:49:06.959Z,89.60
2022-11-24T18:51:33.883Z,89.57
2022-11-24T18:54:02.046Z,89.79
2022-11-24T18:56:28.398Z,90.28
2022-11-24T18:58:56.472Z,89.76
2022-11-24T19:01:28.369Z,89.78
2022-11-24T19:03:59.445Z,89.86
2022-11-24T19:06:31.790Z,89.93
2022-11-24T19:08:59.733Z,90.58
2022-11-24T19:11:28.993Z,90.75
2022-11-24T19:13:56.420Z,90.53
2022-11-24T19:16:23.362Z,90.46
2022-11-24T19:18:54.107Z,90.51
2022-11-24T19:21:21.832Z,90.48
2022-11-24T19:23:49.202Z,90.07
2022-11-24T19:26:15.484Z,90.50
2022-11-24T19:28:41.892Z,90.65
2022-11-24T19:31:11.550Z,90.65
2022-11-24T19:33:38.204Z,91.41
2022-11-24T19:36:04.848Z,91.34
2022-11-24T19:38:32.745Z,92.04
2022-11-24T19:41:06.661Z,92.24
2022-11-24T19:43:33.977Z,92.19
2022-11-24T19:46:06.104Z,91.94
2022-11-24T19:48:34.488Z,92.01
2022-11-24T19:51:01.826Z,92.46
2022-11-24T19:53:28.984Z,92.16
2022-11-24T19:55:55.774Z,92.09
2022-11-24T19:58:22.113Z,92.46
2022-11-24T20:00:48.455Z,91.94
2022-11-24T20:03:14.989Z,92.00
2022-11-24T20:05:41.264Z,91.95
2022-11-24T20:08:07.701Z,92.38
2022-11-24T20:10:34.037Z,92.54
2022-11-24T20:13:00.380Z,93.08
2022-11-24T20:15:26.672Z,93.36
2022-11-24T20:17:53.039Z,93.34
2022-11-24T20:20:19.328Z,92.99
2022-11-24T20:22:46.440Z,91.03
2022-11-24T20:25:12.760Z,90.51
2022-11-24T20:27:39.046Z,90.61
2022-11-24T20:30:06.220Z,89.94
2022-11-24T20:32:32.519Z,89.23
2022-11-24T20:34:58.895Z,88.93
2022-11-24T20:37:25.812Z,88.65
2022-11-24T20:39:52.456Z,87.88
2022-11-24T20:42:18.831Z,87.99
2022-11-24T20:44:45.115Z,87.82
2022-11-24T20:47:11.527Z,87.47
2022-11-24T20:49:37.860Z,87.25
2022-11-24T20:52:04.478Z,87.01
2022-11-24T20:54:30.819Z,87.01
2022-11-24T20:56:57.233Z,87.14
2022-11-24T20:59:25.068Z,87.18
2022-11-24T21:01:52.450Z,88.12
2022-11-24T21:04:22.530Z,87.82
2022-11-24T21:06:49.620Z,87.33
2022-11-24T21:09:16.777Z,87.05
2022-11-24T21:11:43.118Z,87.38
2022-11-24T21:14:10.230Z,87.46
2022-11-24T21:16:38.933Z,88.17
2022-11-24T21:19:08.568Z,87.33
2022-11-24T21:21:37.333Z,86.94
2022-11-24T21:24:06.376Z,86.09
2022-11-24T21:26:37.195Z,86.01
2022-11-24T21:29:03.840Z,86.14
2022-11-24T21:31:34.075Z,85.98
2022-11-24T21:34:00.431Z,85.63
2022-11-24T21:36:26.832Z,85.98
2022-11-24T21:38:55.944Z,85.45
2022-11-24T21:41:24.535Z,85.27
2022-11-24T21:43:57.264Z,85.73
2022-11-24T21:46:24.798Z,85.94
2022-11-24T21:48:51.150Z,86.25
2022-11-24T21:51:20.035Z,85.79
2022-11-24T21:53:47.477Z,86.09
2022-11-24T21:56:17.022Z,87.16
2022-11-24T21:58:48.842Z,87.53
2022-11-24T22:01:17.247Z,88.11
2022-11-24T22:03:43.836Z,88.82
2022-11-24T22:06:10.222Z,89.48
2022-11-24T22:08:36.719Z,90.05
2022-11-24T22:11:06.492Z,90.92
2022-11-24T22:13:33.542Z,90.44
2022-11-24T22:16:02.439Z,90.80
2022-11-24T22:18:33.936Z,91.45
2022-11-24T22:21:02.797Z,91.29
2022-11-24T22:23:30.733Z,91.52
2022-11-24T22:26:02.828Z,91.79
2022-11-24T22:28:36.212Z,92.85
2022-11-24T22:31:13.459Z,92.72
2022-11-24T22:33:39.873Z,93.04
2022-11-24T22:36:07.616Z,93.22
2022-11-24T22:38:34.514Z,93.23
2022-11-24T22:41:02.834Z,93.70
2022-11-24T22:43:31.533Z,93.47
2022-11-24T22:45:57.889Z,93.96
2022-11-24T22:48:24.339Z,93.79
2022-11-24T22:50:50.628Z,94.13
2022-11-24T22:53:16.902Z,93.86
2022-11-24T22:55:45.617Z,93.89
2022-11-24T22:58:11.917Z,94.04
2022-11-24T23:00:38.296Z,94.38
2022-11-24T23:03:04.678Z,94.31
2022-11-24T23:05:32.897Z,93.95
2022-11-24T23:07:59.266Z,94.27
2022-11-24T23:10:25.615Z,94.22
2022-11-24T23:12:51.938Z,94.53
2022-11-24T23:15:18.244Z,94.97
2022-11-24T23:17:44.527Z,95.13
2022-11-24T23:20:11.790Z,95.57
2022-11-24T23:22:38.099Z,95.25
2022-11-24T23:25:04.726Z,95.93
2022-11-24T23:27:31.046Z,95.13
2022-11-24T23:29:57.478Z,95.13
2022-11-24T23:32:23.823Z,94.72
2022-11-24T23:34:50.210Z,94.89
2022-11-24T23:37:16.620Z,95.09
2022-11-24T23:39:42.957Z,95.28
2022-11-24T23:42:09.290Z,95.41
2022-11-24T23:44:35.728Z,95.55
2022-11-24T23:47:02.297Z,96.62
2022-11-24T23:49:29.099Z,97.14
2022-11-24T23:51:55.385Z,97.13
2022-11-24T23:54:21.734Z,97.15
2022-11-24T23:56:50.443Z,97.19
2022-11-24T23:59:17.360Z,97.17
